Terminal Aerodrome Forecast
Issued by NWS Wilmington, OH

Current Version | Previous Version | Text Only | Print | Product List | Glossary Off
Versions: 1 2 3 4 5 6 7 8 9 10 11 12 13 14 15 16 17 18 19 20 21 22 23

498
FTUS41 KILN 251125
TAFILN
TAF
KILN 251125Z 2512/2612 26005KT P6SM FEW035 SCT120 BKN250
     FM251700 26010KT P6SM VCTS SCT040CB SCT100 BKN250
     FM252100 29007KT P6SM VCTS SCT040CB BKN100 BKN250
     FM260100 VRB03KT P6SM BKN100 BKN250
      TEMPO 2608/2612 4SM BR=

USA.gov is the U.S. government's official web portal to all federal, state and local government web resources and services.